Time;durP1;ratioP1;P1;durP2;ratioP2;P2;SDS_P1;SDS_P2;PMS_P1;PMS_P2;Temp;Humidity;BMP_temperature;BMP_pressure;BME280_temperature;BME280_humidity;BME280_pressure;Samples;Min_cycle;Max_cycle;Signal;HPM_P1;HPM_P2
2022/08/10 00:00:37;;;;;;;2.83;1.27;;;;;;;;;;5023860;28;20050;-80
2022/08/10 00:03:06;;;;;;;1.55;1.20;;;;;;;;;;5037872;28;20137;-80
2022/08/10 00:05:33;;;;;;;2.28;1.10;;;;;;;;;;5023340;28;20140;-80
2022/08/10 00:08:18;;;;;;;2.65;1.50;;;;;;;;;;5027237;28;20146;-80
2022/08/10 00:11:00;;;;;;;5.13;1.20;;;;;;;;;;5019427;28;20050;-80
2022/08/10 00:13:29;;;;;;;1.33;1.20;;;;;;;;;;5042602;28;20066;-80
2022/08/10 00:15:57;;;;;;;1.92;1.20;;;;;;;;;;5022391;28;20439;-80
2022/08/10 00:18:26;;;;;;;1.85;1.25;;;;;;;;;;5024114;28;20050;-80
2022/08/10 00:21:01;;;;;;;4.75;1.13;;;;;;;;;;5025343;28;20057;-81
2022/08/10 00:23:28;;;;;;;2.97;1.20;;;;;;;;;;5022765;28;20058;-80
2022/08/10 00:25:56;;;;;;;1.40;1.30;;;;;;;;;;5025700;28;20045;-80
2022/08/10 00:28:23;;;;;;;4.50;1.40;;;;;;;;;;5027038;28;20101;-80
2022/08/10 00:30:53;;;;;;;3.38;1.40;;;;;;;;;;5027236;28;20049;-80
2022/08/10 00:33:20;;;;;;;6.82;1.33;;;;;;;;;;5033624;28;20054;-79
2022/08/10 00:35:48;;;;;;;1.92;1.40;;;;;;;;;;5043981;28;20101;-80
2022/08/10 00:38:15;;;;;;;2.97;1.38;;;;;;;;;;5025963;28;20833;-79
2022/08/10 00:40:45;;;;;;;2.13;1.27;;;;;;;;;;5033023;28;20101;-80
2022/08/10 00:43:12;;;;;;;3.63;1.63;;;;;;;;;;5043310;28;20074;-80
2022/08/10 00:45:39;;;;;;;8.48;1.30;;;;;;;;;;5025887;28;20046;-81
2022/08/10 00:48:09;;;;;;;3.15;1.33;;;;;;;;;;5035943;28;20080;-80
2022/08/10 00:50:36;;;;;;;1.98;1.42;;;;;;;;;;5035752;28;20082;-81
2022/08/10 00:53:03;;;;;;;2.67;1.60;;;;;;;;;;5030065;28;20093;-80
2022/08/10 00:55:33;;;;;;;1.52;1.38;;;;;;;;;;5025493;28;20046;-80
2022/08/10 00:58:20;;;;;;;3.88;1.40;;;;;;;;;;5033861;28;20065;-80
2022/08/10 01:00:47;;;;;;;1.75;1.48;;;;;;;;;;5028306;28;20055;-80
2022/08/10 01:03:14;;;;;;;2.53;1.50;;;;;;;;;;5032240;28;20045;-80
2022/08/10 01:06:05;;;;;;;1.65;1.38;;;;;;;;;;5030442;28;20109;-80
2022/08/10 01:08:47;;;;;;;3.50;1.55;;;;;;;;;;5021904;28;20050;-80
2022/08/10 01:11:18;;;;;;;1.60;1.50;;;;;;;;;;5024026;28;20050;-80
2022/08/10 01:14:08;;;;;;;3.33;1.50;;;;;;;;;;5031323;28;20780;-80
2022/08/10 01:16:49;;;;;;;2.90;1.55;;;;;;;;;;5022655;28;20054;-80
2022/08/10 01:19:32;;;;;;;3.58;1.50;;;;;;;;;;5024503;28;20038;-80
2022/08/10 01:22:38;;;;;;;2.20;1.60;;;;;;;;;;5028740;28;20504;-80
2022/08/10 01:25:24;;;;;;;3.97;1.60;;;;;;;;;;5005435;28;20078;-80
2022/08/10 01:27:57;;;;;;;1.38;1.27;;;;;;;;;;4988167;28;20039;-80
2022/08/10 01:30:27;;;;;;;1.85;1.40;;;;;;;;;;5008779;28;20058;-79
2022/08/10 01:32:57;;;;;;;2.10;1.13;;;;;;;;;;5012648;28;20153;-80
2022/08/10 01:35:27;;;;;;;2.35;1.50;;;;;;;;;;5013033;28;20050;-80
2022/08/10 01:38:14;;;;;;;4.20;1.40;;;;;;;;;;4992984;28;20062;-79
2022/08/10 01:40:44;;;;;;;1.40;1.30;;;;;;;;;;4991381;28;20194;-80
2022/08/10 01:43:14;;;;;;;3.17;1.48;;;;;;;;;;5010303;28;20049;-80
2022/08/10 01:45:43;;;;;;;2.33;1.60;;;;;;;;;;5007766;28;20865;-80
2022/08/10 01:48:29;;;;;;;2.22;1.70;;;;;;;;;;5009258;28;20061;-80
2022/08/10 01:51:00;;;;;;;3.30;1.90;;;;;;;;;;5009970;28;20057;-80
2022/08/10 01:53:33;;;;;;;3.38;1.70;;;;;;;;;;5005658;28;20142;-80
2022/08/10 01:56:09;;;;;;;2.90;1.80;;;;;;;;;;5018968;28;20760;-80
2022/08/10 01:58:36;;;;;;;2.80;1.88;;;;;;;;;;5025268;28;20129;-80
2022/08/10 02:01:06;;;;;;;2.65;1.85;;;;;;;;;;5026621;28;20874;-79
2022/08/10 02:03:34;;;;;;;2.05;1.70;;;;;;;;;;5023647;28;20123;-79
2022/08/10 02:06:23;;;;;;;3.03;2.00;;;;;;;;;;5020293;28;20137;-79
2022/08/10 02:08:53;;;;;;;2.92;1.75;;;;;;;;;;5022757;28;20050;-80
2022/08/10 02:11:32;;;;;;;2.33;1.80;;;;;;;;;;5021577;28;20963;-80
2022/08/10 02:14:23;;;;;;;3.28;2.05;;;;;;;;;;5019425;28;20057;-78
2022/08/10 02:16:51;;;;;;;2.88;1.80;;;;;;;;;;5018653;28;20054;-78
2022/08/10 02:19:23;;;;;;;3.65;2.20;;;;;;;;;;5021287;28;20833;-78
2022/08/10 02:21:52;;;;;;;4.72;1.92;;;;;;;;;;5020600;28;20133;-79
2022/08/10 02:24:40;;;;;;;3.33;2.10;;;;;;;;;;5020893;28;20081;-79
2022/08/10 02:27:08;;;;;;;3.15;2.08;;;;;;;;;;5031143;28;20050;-79
2022/08/10 02:29:36;;;;;;;3.05;1.98;;;;;;;;;;5027529;28;20054;-79
2022/08/10 02:32:09;;;;;;;3.30;2.00;;;;;;;;;;5022512;28;20023;-79
2022/08/10 02:34:37;;;;;;;3.13;1.90;;;;;;;;;;5016105;28;20839;-79
2022/08/10 02:37:08;;;;;;;5.03;2.20;;;;;;;;;;5015132;28;20065;-79
2022/08/10 02:39:37;;;;;;;2.50;1.98;;;;;;;;;;5025950;28;20045;-79
2022/08/10 02:42:18;;;;;;;8.75;2.40;;;;;;;;;;5029624;28;21970;-79
2022/08/10 02:45:10;;;;;;;5.28;2.15;;;;;;;;;;5023941;28;20106;-79
2022/08/10 02:47:58;;;;;;;3.08;2.30;;;;;;;;;;5026831;28;20058;-79
2022/08/10 02:50:36;;;;;;;2.58;2.08;;;;;;;;;;5024274;28;20137;-79
2022/08/10 02:53:11;;;;;;;3.33;2.08;;;;;;;;;;5017980;28;20850;-79
2022/08/10 02:56:17;;;;;;;3.13;2.15;;;;;;;;;;5020071;28;20085;-79
2022/08/10 02:58:47;;;;;;;4.47;2.13;;;;;;;;;;5018311;28;20050;-79
2022/08/10 03:01:17;;;;;;;3.70;2.15;;;;;;;;;;5017033;28;20058;-79
2022/08/10 03:03:57;;;;;;;4.32;2.10;;;;;;;;;;5022052;28;20124;-79
2022/08/10 03:06:27;;;;;;;4.28;2.55;;;;;;;;;;5025176;28;20058;-79
2022/08/10 03:08:58;;;;;;;3.22;2.20;;;;;;;;;;5028466;28;20096;-79
2022/08/10 03:11:29;;;;;;;3.97;2.30;;;;;;;;;;5021633;28;20042;-79
2022/08/10 03:14:16;;;;;;;3.80;2.65;;;;;;;;;;5015850;28;20050;-79
2022/08/10 03:16:44;;;;;;;4.10;2.53;;;;;;;;;;5017543;28;20082;-79
2022/08/10 03:19:12;;;;;;;2.75;2.20;;;;;;;;;;5027473;28;20072;-79
2022/08/10 03:22:00;;;;;;;4.20;2.70;;;;;;;;;;5023115;28;20624;-80
2022/08/10 03:24:28;;;;;;;3.72;2.58;;;;;;;;;;5026560;28;20066;-79
2022/08/10 03:26:59;;;;;;;4.95;2.97;;;;;;;;;;5019404;28;20058;-79
2022/08/10 03:29:27;;;;;;;3.83;2.50;;;;;;;;;;5020718;28;20380;-80
2022/08/10 03:31:55;;;;;;;4.45;2.92;;;;;;;;;;5041148;28;20077;-79
2022/08/10 03:34:22;;;;;;;4.50;2.50;;;;;;;;;;5025748;28;20108;-80
2022/08/10 03:36:59;;;;;;;3.90;2.60;;;;;;;;;;5024990;28;20060;-79
2022/08/10 03:39:27;;;;;;;7.40;3.10;;;;;;;;;;5016048;28;20845;-79
2022/08/10 03:41:58;;;;;;;2.58;2.17;;;;;;;;;;5020002;28;20141;-79
2022/08/10 03:44:29;;;;;;;4.97;2.30;;;;;;;;;;5026376;28;20054;-80
2022/08/10 03:46:59;;;;;;;3.72;2.03;;;;;;;;;;5030443;28;20081;-79
2022/08/10 03:49:27;;;;;;;7.75;2.35;;;;;;;;;;5021717;28;20046;-80
2022/08/10 03:51:55;;;;;;;4.65;2.50;;;;;;;;;;5029996;28;20126;-79
2022/08/10 03:54:23;;;;;;;6.35;2.78;;;;;;;;;;5025837;28;20146;-81
2022/08/10 03:56:50;;;;;;;5.10;2.50;;;;;;;;;;5021588;28;20089;-78
2022/08/10 03:59:17;;;;;;;7.07;2.60;;;;;;;;;;5024794;28;20050;-80
2022/08/10 04:01:45;;;;;;;5.93;2.40;;;;;;;;;;5021532;28;20137;-79
2022/08/10 04:04:33;;;;;;;5.32;2.40;;;;;;;;;;5020111;28;20069;-79
2022/08/10 04:07:01;;;;;;;5.68;2.72;;;;;;;;;;5019529;28;20084;-78
2022/08/10 04:09:32;;;;;;;3.67;2.55;;;;;;;;;;5023663;28;20054;-79
2022/08/10 04:12:19;;;;;;;6.20;3.83;;;;;;;;;;5024856;28;20042;-79
2022/08/10 04:14:47;;;;;;;4.40;2.55;;;;;;;;;;5023891;28;20049;-80
2022/08/10 04:17:20;;;;;;;8.10;3.20;;;;;;;;;;5028967;28;20683;-79
2022/08/10 04:20:10;;;;;;;3.97;2.63;;;;;;;;;;5024432;28;20050;-79
2022/08/10 04:22:37;;;;;;;5.25;3.03;;;;;;;;;;5025925;28;20137;-79
2022/08/10 04:25:06;;;;;;;4.13;2.97;;;;;;;;;;5024599;28;20501;-79
2022/08/10 04:27:33;;;;;;;4.20;3.03;;;;;;;;;;5021069;28;20054;-80
2022/08/10 04:30:01;;;;;;;8.35;3.45;;;;;;;;;;5030498;28;20110;-80
2022/08/10 04:32:30;;;;;;;5.28;3.00;;;;;;;;;;5021247;28;20051;-79
2022/08/10 04:34:58;;;;;;;6.50;3.50;;;;;;;;;;5026663;28;20054;-80
2022/08/10 04:37:26;;;;;;;7.07;3.30;;;;;;;;;;5023881;28;20058;-79
2022/08/10 04:39:54;;;;;;;6.63;3.42;;;;;;;;;;5029374;28;20078;-79
2022/08/10 04:42:21;;;;;;;5.45;3.58;;;;;;;;;;5022194;28;20935;-79
2022/08/10 04:44:51;;;;;;;4.43;3.22;;;;;;;;;;5027590;28;20137;-79
2022/08/10 04:47:18;;;;;;;7.25;3.42;;;;;;;;;;5030051;28;20081;-79
2022/08/10 04:50:06;;;;;;;7.80;3.95;;;;;;;;;;5028190;28;20046;-79
2022/08/10 04:52:33;;;;;;;9.50;4.05;;;;;;;;;;5025839;28;20492;-80
2022/08/10 04:55:01;;;;;;;5.35;3.65;;;;;;;;;;5024923;28;20051;-80
2022/08/10 04:57:28;;;;;;;5.97;3.65;;;;;;;;;;5025620;28;20167;-79
2022/08/10 04:59:58;;;;;;;6.50;4.30;;;;;;;;;;5030318;28;20100;-80
2022/08/10 05:02:25;;;;;;;5.68;3.67;;;;;;;;;;5025165;28;20058;-79
2022/08/10 05:04:57;;;;;;;7.43;4.35;;;;;;;;;;5028166;28;20512;-80
2022/08/10 05:07:25;;;;;;;6.72;4.40;;;;;;;;;;5026343;28;20102;-79
2022/08/10 05:09:55;;;;;;;8.85;4.93;;;;;;;;;;5027628;28;20149;-79
2022/08/10 05:12:32;;;;;;;5.97;4.25;;;;;;;;;;5022101;28;20966;-80
2022/08/10 05:15:04;;;;;;;8.25;4.60;;;;;;;;;;5027039;28;20085;-79
2022/08/10 05:17:34;;;;;;;6.50;4.70;;;;;;;;;;5028406;28;20113;-81
2022/08/10 05:20:07;;;;;;;7.60;4.88;;;;;;;;;;5022988;28;20047;-80
2022/08/10 05:22:38;;;;;;;9.03;5.10;;;;;;;;;;5026487;28;20046;-79
2022/08/10 05:25:12;;;;;;;11.02;4.75;;;;;;;;;;5028584;28;20055;-80
2022/08/10 05:27:39;;;;;;;8.93;5.10;;;;;;;;;;5026282;28;20043;-79
2022/08/10 05:30:12;;;;;;;8.50;5.38;;;;;;;;;;5029818;28;20862;-79
2022/08/10 05:32:42;;;;;;;10.60;6.55;;;;;;;;;;5025632;28;20141;-79
2022/08/10 05:35:29;;;;;;;8.73;5.07;;;;;;;;;;5028403;28;20873;-80
2022/08/10 05:38:19;;;;;;;8.45;5.13;;;;;;;;;;5031589;28;20050;-79
2022/08/10 05:40:51;;;;;;;9.43;5.28;;;;;;;;;;5040572;28;20046;-79
2022/08/10 05:43:23;;;;;;;10.52;5.05;;;;;;;;;;5039668;28;20074;-79
2022/08/10 05:45:51;;;;;;;12.60;5.13;;;;;;;;;;5032378;28;20098;-79
2022/08/10 05:48:45;;;;;;;10.48;5.38;;;;;;;;;;5041528;28;20057;-79
2022/08/10 05:51:26;;;;;;;8.88;5.45;;;;;;;;;;5038641;28;20880;-79
2022/08/10 05:53:54;;;;;;;11.07;5.57;;;;;;;;;;5041871;28;20039;-78
2022/08/10 05:56:32;;;;;;;9.52;5.50;;;;;;;;;;5036432;28;20100;-79
2022/08/10 05:59:20;;;;;;;9.73;6.05;;;;;;;;;;5043692;28;20045;-79
2022/08/10 06:02:07;;;;;;;11.23;5.80;;;;;;;;;;5039613;28;20050;-79
2022/08/10 06:04:56;;;;;;;9.93;5.70;;;;;;;;;;5038937;28;20046;-80
2022/08/10 06:07:26;;;;;;;8.90;6.03;;;;;;;;;;5041572;28;20045;-79
2022/08/10 06:09:54;;;;;;;11.85;5.80;;;;;;;;;;5040336;28;20903;-80
2022/08/10 06:12:28;;;;;;;11.70;6.13;;;;;;;;;;5041900;28;20050;-79
2022/08/10 06:15:01;;;;;;;11.77;6.18;;;;;;;;;;5045445;28;20104;-79
2022/08/10 06:17:36;;;;;;;9.10;6.28;;;;;;;;;;5059488;28;20129;-80
2022/08/10 06:20:04;;;;;;;12.05;6.45;;;;;;;;;;5038158;28;20106;-79
2022/08/10 06:22:34;;;;;;;17.92;6.80;;;;;;;;;;5042240;28;20619;-80
2022/08/10 06:25:02;;;;;;;12.45;6.22;;;;;;;;;;5041569;28;20041;-78
2022/08/10 06:27:50;;;;;;;9.93;6.10;;;;;;;;;;5033089;28;20066;-80
2022/08/10 06:30:17;;;;;;;13.73;6.38;;;;;;;;;;5043545;28;20053;-79
2022/08/10 06:32:47;;;;;;;11.98;6.40;;;;;;;;;;5040258;28;20045;-79
2022/08/10 06:35:16;;;;;;;10.10;6.20;;;;;;;;;;5039541;28;20058;-80
2022/08/10 06:37:44;;;;;;;12.05;6.60;;;;;;;;;;5035161;28;20748;-81
2022/08/10 06:40:18;;;;;;;11.63;6.70;;;;;;;;;;5033469;28;20054;-79
2022/08/10 06:42:47;;;;;;;12.48;6.00;;;;;;;;;;5034161;28;20051;-79
2022/08/10 06:45:21;;;;;;;16.05;6.35;;;;;;;;;;5040965;28;20064;-79
2022/08/10 06:48:08;;;;;;;14.60;6.28;;;;;;;;;;5036182;28;20137;-79
2022/08/10 06:50:41;;;;;;;10.05;5.93;;;;;;;;;;5041395;28;20060;-79
2022/08/10 06:53:28;;;;;;;8.52;6.35;;;;;;;;;;5035538;28;20081;-79
2022/08/10 06:56:18;;;;;;;9.80;6.10;;;;;;;;;;5029890;28;20046;-79
2022/08/10 06:59:19;;;;;;;10.55;6.82;;;;;;;;;;5039302;28;20050;-79
2022/08/10 07:01:51;;;;;;;7.90;5.80;;;;;;;;;;5036230;28;20050;-78
2022/08/10 07:04:25;;;;;;;13.73;5.70;;;;;;;;;;5041632;28;20054;-80
2022/08/10 07:07:01;;;;;;;13.32;6.25;;;;;;;;;;5047392;28;20101;-79
2022/08/10 07:09:30;;;;;;;8.43;5.57;;;;;;;;;;5038503;28;20103;-79
2022/08/10 07:11:58;;;;;;;9.93;6.30;;;;;;;;;;5031823;28;20052;-78
2022/08/10 07:14:39;;;;;;;10.57;5.55;;;;;;;;;;5031632;28;20751;-79
2022/08/10 07:17:11;;;;;;;10.23;5.78;;;;;;;;;;5033936;28;20105;-79
2022/08/10 07:19:43;;;;;;;9.95;6.18;;;;;;;;;;5041733;28;20034;-79
2022/08/10 07:22:17;;;;;;;15.88;6.38;;;;;;;;;;5036323;28;20113;-78
2022/08/10 07:25:05;;;;;;;13.80;6.32;;;;;;;;;;5042791;28;20718;-79
2022/08/10 07:27:37;;;;;;;12.80;6.25;;;;;;;;;;5040245;28;20046;-81
2022/08/10 07:30:27;;;;;;;10.85;6.15;;;;;;;;;;5033580;28;20060;-79
2022/08/10 07:32:58;;;;;;;9.20;5.68;;;;;;;;;;5033874;28;20149;-80
2022/08/10 07:35:26;;;;;;;8.75;6.00;;;;;;;;;;5037199;28;20052;-79
2022/08/10 07:37:57;;;;;;;8.00;5.45;;;;;;;;;;5042289;28;21052;-79
2022/08/10 07:40:28;;;;;;;11.40;5.60;;;;;;;;;;5040052;28;20022;-79
2022/08/10 07:42:59;;;;;;;9.00;5.10;;;;;;;;;;5030064;28;20073;-79
2022/08/10 07:45:30;;;;;;;10.73;5.88;;;;;;;;;;5038099;28;20168;-79
2022/08/10 07:47:59;;;;;;;19.83;5.70;;;;;;;;;;5035285;28;20055;-79
2022/08/10 07:50:36;;;;;;;11.70;5.65;;;;;;;;;;5040939;28;20041;-79
2022/08/10 07:53:06;;;;;;;10.05;5.50;;;;;;;;;;5047764;28;20072;-79
2022/08/10 07:55:34;;;;;;;9.18;4.95;;;;;;;;;;5036369;28;20113;-78
2022/08/10 07:58:27;;;;;;;10.85;5.45;;;;;;;;;;5038079;28;20050;-77
2022/08/10 08:00:57;;;;;;;8.68;4.40;;;;;;;;;;5020874;28;20101;-77
2022/08/10 08:03:28;;;;;;;6.65;4.63;;;;;;;;;;5019474;28;20527;-75
2022/08/10 08:05:58;;;;;;;6.43;4.25;;;;;;;;;;5014370;28;20174;-76
2022/08/10 08:08:37;;;;;;;12.50;4.47;;;;;;;;;;5020355;28;20097;-75
2022/08/10 08:11:05;;;;;;;11.90;4.45;;;;;;;;;;5022604;28;20060;-76
2022/08/10 08:13:33;;;;;;;9.35;4.28;;;;;;;;;;5007451;28;20057;-75
2022/08/10 08:16:03;;;;;;;12.40;4.40;;;;;;;;;;5021792;28;20052;-76
2022/08/10 08:18:48;;;;;;;7.28;3.92;;;;;;;;;;5015782;28;20889;-76
2022/08/10 08:21:36;;;;;;;11.25;4.10;;;;;;;;;;5023853;28;20030;-76
2022/08/10 08:24:24;;;;;;;7.97;3.35;;;;;;;;;;5036661;28;20056;-78
2022/08/10 08:27:00;;;;;;;7.47;4.10;;;;;;;;;;5030945;28;20054;-76
2022/08/10 08:29:27;;;;;;;6.88;3.53;;;;;;;;;;5038226;28;20081;-76
2022/08/10 08:31:55;;;;;;;8.85;3.90;;;;;;;;;;5028654;28;20137;-76
2022/08/10 08:34:30;;;;;;;12.13;3.70;;;;;;;;;;5020459;28;20051;-76
2022/08/10 08:36:58;;;;;;;8.45;3.38;;;;;;;;;;5027791;28;20799;-76
2022/08/10 08:39:26;;;;;;;9.10;3.25;;;;;;;;;;5030138;28;20133;-76
2022/08/10 08:41:58;;;;;;;6.43;3.10;;;;;;;;;;5040208;28;20053;-76
2022/08/10 08:44:38;;;;;;;11.05;3.35;;;;;;;;;;5024750;28;20050;-76
2022/08/10 08:47:16;;;;;;;10.52;3.20;;;;;;;;;;5025621;28;20144;-75
2022/08/10 08:50:24;;;;;;;8.85;3.05;;;;;;;;;;5019176;28;20061;-76
2022/08/10 08:52:57;;;;;;;8.15;2.72;;;;;;;;;;5026304;28;20883;-75
2022/08/10 08:55:42;;;;;;;5.88;2.70;;;;;;;;;;5022383;28;20057;-75
2022/08/10 08:58:35;;;;;;;7.97;2.90;;;;;;;;;;5032513;28;20058;-75
2022/08/10 09:01:18;;;;;;;9.60;2.83;;;;;;;;;;5029072;28;20073;-75
2022/08/10 09:03:55;;;;;;;9.70;3.13;;;;;;;;;;5020023;28;20046;-75
2022/08/10 09:06:41;;;;;;;5.90;2.28;;;;;;;;;;5027933;28;20049;-75
2022/08/10 09:09:20;;;;;;;5.82;2.17;;;;;;;;;;5018589;28;20057;-76
2022/08/10 09:12:09;;;;;;;7.75;1.88;;;;;;;;;;5032464;28;20066;-75
2022/08/10 09:14:58;;;;;;;5.40;2.10;;;;;;;;;;5016493;28;20512;-76
2022/08/10 09:17:30;;;;;;;3.10;2.22;;;;;;;;;;5028189;28;20052;-76
2022/08/10 09:20:14;;;;;;;3.90;2.13;;;;;;;;;;5023974;28;20053;-75
2022/08/10 09:22:55;;;;;;;6.50;2.00;;;;;;;;;;5020140;28;20050;-74
2022/08/10 09:25:44;;;;;;;6.43;2.17;;;;;;;;;;5020549;28;20054;-75
2022/08/10 09:28:16;;;;;;;10.85;2.00;;;;;;;;;;5019555;28;20140;-75
2022/08/10 09:31:02;;;;;;;5.07;1.88;;;;;;;;;;5022656;28;20058;-75
2022/08/10 09:34:07;;;;;;;4.68;2.00;;;;;;;;;;5020205;28;20148;-78
2022/08/10 09:36:54;;;;;;;4.30;1.90;;;;;;;;;;5022205;28;21819;-75
2022/08/10 09:39:33;;;;;;;3.55;1.80;;;;;;;;;;5024542;28;20053;-76
2022/08/10 09:42:42;;;;;;;4.78;1.85;;;;;;;;;;5017194;28;20065;-76
2022/08/10 09:45:23;;;;;;;4.32;1.70;;;;;;;;;;5030780;28;20051;-75
2022/08/10 09:48:01;;;;;;;2.80;1.70;;;;;;;;;;5039420;28;20129;-76
2022/08/10 09:50:48;;;;;;;5.80;2.03;;;;;;;;;;5020378;28;20129;-76
2022/08/10 09:53:38;;;;;;;4.53;1.65;;;;;;;;;;5020420;28;20053;-76
2022/08/10 09:56:27;;;;;;;5.43;1.38;;;;;;;;;;5027585;28;20045;-75
2022/08/10 09:59:03;;;;;;;3.95;1.63;;;;;;;;;;5021338;28;20137;-76
2022/08/10 10:02:02;;;;;;;2.92;1.30;;;;;;;;;;5026578;28;20046;-76
2022/08/10 10:04:44;;;;;;;3.17;1.45;;;;;;;;;;5019723;28;20120;-76
2022/08/10 10:07:14;;;;;;;6.88;1.70;;;;;;;;;;5016933;28;20056;-77
2022/08/10 10:09:50;;;;;;;5.38;1.63;;;;;;;;;;5022941;28;20054;-77
2022/08/10 10:12:26;;;;;;;2.92;1.13;;;;;;;;;;5032262;28;20077;-76
2022/08/10 10:17:57;;;;;;;3.08;1.40;;;;;;;;;;5029718;28;20035;-76
2022/08/10 10:20:27;;;;;;;5.88;1.35;;;;;;;;;;5038623;28;20098;-75
2022/08/10 10:23:07;;;;;;;3.60;1.40;;;;;;;;;;5035367;28;20050;-75
2022/08/10 10:25:42;;;;;;;3.00;1.23;;;;;;;;;;5026487;28;20054;-75
2022/08/10 10:28:33;;;;;;;2.33;1.20;;;;;;;;;;5041076;28;20053;-76
2022/08/10 10:31:26;;;;;;;3.97;1.20;;;;;;;;;;5031492;28;20058;-76
2022/08/10 10:33:59;;;;;;;4.43;1.33;;;;;;;;;;5050095;28;20146;-75
2022/08/10 10:36:27;;;;;;;2.03;1.17;;;;;;;;;;5022570;28;20138;-76
2022/08/10 10:38:58;;;;;;;3.45;1.42;;;;;;;;;;5029728;28;20054;-75
2022/08/10 10:42:01;;;;;;;3.83;1.20;;;;;;;;;;5025813;28;20243;-79
2022/08/10 10:44:46;;;;;;;6.32;1.58;;;;;;;;;;4982202;28;20446;-77
2022/08/10 10:47:28;;;;;;;1.67;1.08;;;;;;;;;;5007008;28;20140;-78
2022/08/10 10:49:57;;;;;;;4.97;1.27;;;;;;;;;;5015152;28;20149;-78
2022/08/10 10:52:36;;;;;;;5.30;1.23;;;;;;;;;;5005311;28;20055;-78
2022/08/10 10:55:15;;;;;;;1.88;1.20;;;;;;;;;;5007290;28;20061;-78
2022/08/10 10:57:58;;;;;;;4.15;1.70;;;;;;;;;;4998787;28;20054;-78
2022/08/10 11:00:34;;;;;;;2.30;0.93;;;;;;;;;;5008126;28;20062;-78
2022/08/10 11:03:01;;;;;;;2.40;1.17;;;;;;;;;;5007082;28;20057;-77
2022/08/10 11:05:33;;;;;;;3.90;1.23;;;;;;;;;;5012690;28;20546;-77
2022/08/10 11:08:11;;;;;;;4.05;1.40;;;;;;;;;;5009502;28;20046;-77
2022/08/10 11:10:46;;;;;;;2.75;1.13;;;;;;;;;;5005312;28;20047;-79
2022/08/10 11:13:21;;;;;;;3.88;1.50;;;;;;;;;;5005285;28;20093;-78
2022/08/10 11:16:20;;;;;;;3.15;1.27;;;;;;;;;;5002469;28;20050;-76
2022/08/10 11:18:54;;;;;;;8.43;1.33;;;;;;;;;;5007133;28;20057;-77
2022/08/10 11:21:40;;;;;;;2.58;1.05;;;;;;;;;;5022032;28;20270;-76
2022/08/10 11:24:16;;;;;;;5.32;1.50;;;;;;;;;;5017974;28;20133;-77
2022/08/10 11:27:22;;;;;;;5.15;1.40;;;;;;;;;;5021585;28;20058;-77
2022/08/10 11:29:58;;;;;;;2.67;1.17;;;;;;;;;;5026765;28;20574;-77
2022/08/10 11:32:35;;;;;;;3.47;1.23;;;;;;;;;;5018435;28;20408;-77
2022/08/10 11:35:11;;;;;;;3.05;1.30;;;;;;;;;;5024269;28;20777;-78
2022/08/10 11:37:56;;;;;;;7.93;1.50;;;;;;;;;;5019753;28;20050;-76
2022/08/10 11:40:43;;;;;;;1.67;1.20;;;;;;;;;;5017558;28;20419;-78
2022/08/10 11:43:14;;;;;;;4.28;1.20;;;;;;;;;;5023388;28;20050;-77
2022/08/10 11:45:42;;;;;;;2.35;1.20;;;;;;;;;;5019125;28;20050;-76
2022/08/10 11:48:41;;;;;;;3.58;1.40;;;;;;;;;;5021770;28;20051;-76
2022/08/10 11:51:38;;;;;;;1.92;1.30;;;;;;;;;;5021021;28;20062;-77
2022/08/10 11:54:14;;;;;;;2.20;1.30;;;;;;;;;;5021112;28;20148;-76
2022/08/10 11:56:46;;;;;;;1.55;1.20;;;;;;;;;;5023460;28;20050;-76
2022/08/10 12:02:04;;;;;;;4.97;1.40;;;;;;;;;;5025664;28;20057;-76
2022/08/10 12:04:33;;;;;;;4.65;1.30;;;;;;;;;;5030504;28;20064;-78
2022/08/10 12:07:03;;;;;;;2.35;1.10;;;;;;;;;;5030594;28;20050;-79
2022/08/10 12:09:52;;;;;;;5.80;1.13;;;;;;;;;;5030313;28;20054;-77
2022/08/10 12:12:42;;;;;;;3.25;1.27;;;;;;;;;;5032195;28;21016;-76
2022/08/10 12:15:16;;;;;;;3.38;1.30;;;;;;;;;;5030785;28;20058;-78
2022/08/10 12:17:49;;;;;;;4.28;1.58;;;;;;;;;;5030580;28;20050;-79
2022/08/10 12:20:25;;;;;;;3.03;1.35;;;;;;;;;;5031841;28;20138;-76
2022/08/10 12:22:55;;;;;;;5.10;1.33;;;;;;;;;;5028147;28;20053;-78
2022/08/10 12:25:43;;;;;;;2.63;1.33;;;;;;;;;;5033079;28;20117;-78
2022/08/10 12:28:40;;;;;;;5.63;1.30;;;;;;;;;;5022729;28;20128;-78
2022/08/10 12:31:20;;;;;;;5.20;1.60;;;;;;;;;;5022993;28;20053;-79
2022/08/10 12:34:00;;;;;;;3.42;1.33;;;;;;;;;;5028556;28;20058;-79
2022/08/10 12:36:44;;;;;;;6.95;1.33;;;;;;;;;;5025828;28;20598;-78
2022/08/10 12:39:14;;;;;;;2.30;1.50;;;;;;;;;;5027189;28;20137;-78
2022/08/10 12:41:50;;;;;;;5.13;1.42;;;;;;;;;;5022949;28;20500;-78
2022/08/10 12:44:29;;;;;;;4.15;1.40;;;;;;;;;;5024287;28;20113;-78
2022/08/10 12:47:21;;;;;;;3.38;1.77;;;;;;;;;;5022705;28;20053;-78
2022/08/10 12:49:54;;;;;;;9.27;1.48;;;;;;;;;;5022853;28;20054;-78
2022/08/10 12:52:58;;;;;;;3.75;1.50;;;;;;;;;;5029906;28;20054;-78
2022/08/10 12:55:33;;;;;;;1.77;1.30;;;;;;;;;;5030070;28;20055;-78
2022/08/10 12:58:03;;;;;;;2.65;1.30;;;;;;;;;;5035161;28;20053;-78
2022/08/10 13:00:52;;;;;;;4.80;1.33;;;;;;;;;;5032067;28;20054;-78
2022/08/10 13:03:40;;;;;;;2.50;1.20;;;;;;;;;;5035421;28;20114;-79
2022/08/10 13:06:30;;;;;;;2.95;1.40;;;;;;;;;;5025383;28;20190;-78
2022/08/10 13:09:12;;;;;;;2.63;1.10;;;;;;;;;;5033055;28;20144;-78
2022/08/10 13:11:58;;;;;;;1.80;1.10;;;;;;;;;;5028299;28;20050;-79
2022/08/10 13:14:47;;;;;;;2.50;1.13;;;;;;;;;;5023273;28;20241;-77
2022/08/10 13:17:20;;;;;;;5.00;1.20;;;;;;;;;;5021835;28;20523;-77
2022/08/10 13:19:47;;;;;;;;;;;;;;;;;;5025820;28;20617;-76
2022/08/10 13:22:23;;;;;;;5.25;1.30;;;;;;;;;;5021463;28;43172;-78
2022/08/10 13:24:52;;;;;;;2.05;1.30;;;;;;;;;;5020026;28;20054;-76
2022/08/10 13:27:27;;;;;;;2.25;1.17;;;;;;;;;;5021801;28;20049;-77
2022/08/10 13:30:14;;;;;;;6.55;1.50;;;;;;;;;;5022657;28;20141;-75
2022/08/10 13:32:47;;;;;;;1.25;1.15;;;;;;;;;;5020120;28;20165;-76
2022/08/10 13:35:17;;;;;;;3.67;1.42;;;;;;;;;;5018706;28;20054;-74
2022/08/10 13:37:47;;;;;;;2.83;1.20;;;;;;;;;;5023850;28;20085;-76
2022/08/10 13:40:15;;;;;;;2.28;1.30;;;;;;;;;;5022681;28;20132;-76
2022/08/10 13:42:46;;;;;;;4.32;1.58;;;;;;;;;;5025027;28;20050;-75
2022/08/10 13:45:15;;;;;;;2.95;1.23;;;;;;;;;;5024960;28;20045;-76
2022/08/10 13:47:48;;;;;;;4.53;1.40;;;;;;;;;;5027466;28;20064;-75
2022/08/10 13:50:22;;;;;;;1.88;1.30;;;;;;;;;;5019796;28;20053;-76
2022/08/10 13:53:02;;;;;;;3.30;1.45;;;;;;;;;;5023982;28;20124;-77
2022/08/10 13:55:30;;;;;;;1.98;1.20;;;;;;;;;;5014514;28;20050;-77
2022/08/10 13:58:22;;;;;;;1.95;1.30;;;;;;;;;;5024506;28;20054;-76
2022/08/10 14:00:49;;;;;;;3.40;1.50;;;;;;;;;;5023563;28;20056;-76
2022/08/10 14:03:17;;;;;;;4.90;1.50;;;;;;;;;;5024863;28;20159;-77
2022/08/10 14:05:51;;;;;;;5.65;1.48;;;;;;;;;;5019560;28;20125;-77
2022/08/10 14:08:28;;;;;;;1.42;1.20;;;;;;;;;;5014148;28;20061;-77
2022/08/10 14:10:56;;;;;;;5.43;1.40;;;;;;;;;;5026008;28;20062;-76
2022/08/10 14:13:40;;;;;;;1.33;1.17;;;;;;;;;;5021740;28;20053;-76
2022/08/10 14:16:09;;;;;;;3.45;1.05;;;;;;;;;;5016557;28;20054;-78
2022/08/10 14:18:38;;;;;;;1.90;1.10;;;;;;;;;;5020457;28;20056;-77
2022/08/10 14:21:05;;;;;;;1.02;0.93;;;;;;;;;;5033596;28;20054;-77
2022/08/10 14:23:38;;;;;;;7.22;1.15;;;;;;;;;;5020668;28;20141;-76
2022/08/10 14:26:06;;;;;;;3.03;1.20;;;;;;;;;;5019483;28;21095;-79
2022/08/10 14:28:39;;;;;;;2.40;0.98;;;;;;;;;;5021356;28;20129;-77
2022/08/10 14:31:11;;;;;;;4.35;1.48;;;;;;;;;;5025196;28;20132;-77
2022/08/10 14:33:41;;;;;;;2.42;1.00;;;;;;;;;;5017700;28;20054;-77
2022/08/10 14:36:09;;;;;;;3.50;1.40;;;;;;;;;;5019239;28;20065;-78
2022/08/10 14:38:52;;;;;;;1.85;1.17;;;;;;;;;;5027213;28;20058;-77
2022/08/10 14:41:30;;;;;;;1.58;1.23;;;;;;;;;;5022219;28;20125;-77
2022/08/10 14:44:18;;;;;;;5.05;1.30;;;;;;;;;;5015584;28;20062;-78
2022/08/10 14:46:47;;;;;;;2.65;1.48;;;;;;;;;;5024287;28;20056;-79
2022/08/10 14:49:19;;;;;;;5.18;1.23;;;;;;;;;;5036050;28;20109;-76
2022/08/10 14:51:52;;;;;;;3.28;1.17;;;;;;;;;;5020977;28;20108;-76
2022/08/10 14:54:26;;;;;;;1.20;1.10;;;;;;;;;;5015151;28;20114;-76
2022/08/10 14:56:56;;;;;;;5.53;1.30;;;;;;;;;;5026822;28;20059;-76
2022/08/10 14:59:26;;;;;;;2.42;1.38;;;;;;;;;;5023002;28;20066;-77
2022/08/10 15:02:16;;;;;;;2.70;1.30;;;;;;;;;;5024345;28;20055;-75
2022/08/10 15:05:03;;;;;;;7.38;1.30;;;;;;;;;;5025834;28;20061;-77
2022/08/10 15:07:35;;;;;;;3.50;1.27;;;;;;;;;;5026131;28;20046;-77
2022/08/10 15:10:09;;;;;;;2.03;1.20;;;;;;;;;;5026545;28;20046;-76
2022/08/10 15:12:38;;;;;;;10.32;1.40;;;;;;;;;;5030435;28;20097;-77
2022/08/10 15:15:09;;;;;;;;;;;;;;;;;;5024986;28;20045;-77
2022/08/10 15:17:38;;;;;;;3.92;1.30;;;;;;;;;;5022118;28;46927;-76
2022/08/10 15:20:21;;;;;;;2.42;1.10;;;;;;;;;;5029680;28;20065;-77
2022/08/10 15:22:50;;;;;;;2.08;1.60;;;;;;;;;;5017747;28;20054;-77
2022/08/10 15:25:19;;;;;;;6.00;1.70;;;;;;;;;;5019951;28;20124;-76
2022/08/10 15:27:54;;;;;;;4.68;1.45;;;;;;;;;;5019689;28;20145;-76
2022/08/10 15:30:25;;;;;;;3.15;1.35;;;;;;;;;;5020850;28;20210;-77
2022/08/10 15:39:03;;;;;;;3.72;1.38;;;;;;;;;;5021835;28;20109;-78
2022/08/10 15:41:50;;;;;;;5.03;1.38;;;;;;;;;;5020660;28;20501;-78
2022/08/10 15:44:38;;;;;;;40.58;21.00;;;;;;;;;;5023167;28;20057;-78